createdAt,value
2022-11-19T00:02:29.289Z,-1.54
2022-11-19T00:07:28.863Z,-1.49
2022-11-19T00:12:45.902Z,-1.46
2022-11-19T00:17:44.762Z,-1.45
2022-11-19T00:22:45.066Z,-1.49
2022-11-19T00:27:44.208Z,-1.52
2022-11-19T00:32:43.956Z,-1.53
2022-11-19T00:37:43.296Z,-1.51
2022-11-19T00:43:02.987Z,-1.50
2022-11-19T00:48:01.905Z,-1.48
2022-11-19T00:53:05.437Z,-1.46
2022-11-19T00:58:05.340Z,-1.44
2022-11-19T01:03:04.454Z,-1.42
2022-11-19T01:08:02.963Z,-1.40
2022-11-19T01:13:19.044Z,-1.37
2022-11-19T01:18:20.356Z,-1.37
2022-11-19T01:23:20.273Z,-1.35
2022-11-19T01:28:18.861Z,-1.33
2022-11-19T01:33:18.721Z,-1.32
2022-11-19T01:38:17.965Z,-1.31
2022-11-19T01:43:19.257Z,-1.33
2022-11-19T01:48:28.537Z,-1.34
2022-11-19T01:53:36.920Z,-1.39
2022-11-19T01:58:39.783Z,-1.43
2022-11-19T02:03:40.939Z,-1.45
2022-11-19T02:08:45.932Z,-1.47
2022-11-19T02:13:54.139Z,-1.50
2022-11-19T02:19:03.085Z,-1.52
2022-11-19T02:24:52.074Z,-1.53
2022-11-19T02:30:11.187Z,-1.52
2022-11-19T02:35:25.411Z,-1.52
2022-11-19T02:40:30.290Z,-1.57
2022-11-19T02:45:34.962Z,-1.61
2022-11-19T02:50:39.633Z,-1.62
2022-11-19T02:55:40.570Z,-1.62
2022-11-19T03:01:06.753Z,-1.62
2022-11-19T03:06:12.977Z,-1.64
2022-11-19T03:11:26.440Z,-1.64
2022-11-19T03:16:44.999Z,-1.63
2022-11-19T03:21:52.023Z,-1.65
2022-11-19T03:26:59.450Z,-1.67
2022-11-19T03:32:07.581Z,-1.69
2022-11-19T03:37:10.288Z,-1.70
2022-11-19T03:42:14.410Z,-1.72
2022-11-19T03:47:19.978Z,-1.74
2022-11-19T03:52:23.065Z,-1.72
2022-11-19T03:57:26.572Z,-1.70
2022-11-19T04:02:26.601Z,-1.69
2022-11-19T04:07:28.346Z,-1.68
2022-11-19T04:12:31.746Z,-1.67
2022-11-19T04:17:30.854Z,-1.67
2022-11-19T04:22:30.572Z,-1.70
2022-11-19T04:27:29.308Z,-1.72
2022-11-19T04:32:27.675Z,-1.77
2022-11-19T04:37:27.742Z,-1.83
2022-11-19T04:42:26.879Z,-1.88
2022-11-19T04:47:26.023Z,-1.97
2022-11-19T04:52:25.125Z,-1.99
2022-11-19T04:57:24.011Z,-1.97
2022-11-19T05:02:22.809Z,-1.98
2022-11-19T05:07:26.869Z,-1.98
2022-11-19T05:12:25.924Z,-1.96
2022-11-19T05:17:25.270Z,-1.94
2022-11-19T05:22:24.244Z,-1.93
2022-11-19T05:27:23.662Z,-1.95
2022-11-19T05:32:23.350Z,-1.95
2022-11-19T05:37:22.775Z,-1.93
2022-11-19T05:42:22.592Z,-1.93
2022-11-19T05:47:23.796Z,-1.94
2022-11-19T05:52:23.072Z,-1.94
2022-11-19T05:57:22.392Z,-1.94
2022-11-19T06:02:22.641Z,-1.98
2022-11-19T06:07:21.853Z,-1.99
2022-11-19T06:12:21.065Z,-2.00
2022-11-19T06:17:20.239Z,-1.99
2022-11-19T06:22:19.872Z,-1.96
2022-11-19T06:27:19.075Z,-1.94
2022-11-19T06:32:19.532Z,-1.91
2022-11-19T06:37:18.600Z,-1.89
2022-11-19T06:42:35.329Z,-1.86
2022-11-19T06:47:36.145Z,-1.83
2022-11-19T06:52:35.855Z,-1.82
2022-11-19T06:57:34.843Z,-1.82
2022-11-19T07:02:33.396Z,-1.78
2022-11-19T07:07:32.184Z,-1.79
2022-11-19T07:12:30.881Z,-1.81
2022-11-19T07:17:30.207Z,-1.76
2022-11-19T07:22:30.665Z,-1.67
2022-11-19T07:27:29.558Z,-1.57
2022-11-19T07:32:28.991Z,-1.50
2022-11-19T07:37:28.361Z,-1.51
2022-11-19T07:42:44.701Z,-1.58
2022-11-19T07:47:43.674Z,-1.68
2022-11-19T07:52:43.150Z,-1.61
2022-11-19T07:57:41.749Z,-1.48
2022-11-19T08:02:40.992Z,-1.35
2022-11-19T08:07:41.784Z,-1.22
2022-11-19T08:12:40.944Z,-1.09
2022-11-19T08:17:57.008Z,-1.02
2022-11-19T08:22:56.790Z,-1.08
2022-11-19T08:27:56.085Z,-1.00
2022-11-19T08:32:57.376Z,-0.88
2022-11-19T08:37:58.531Z,-0.76
2022-11-19T08:43:03.097Z,-0.66
2022-11-19T08:48:03.893Z,-0.58
2022-11-19T08:53:07.389Z,-0.55
2022-11-19T08:58:08.876Z,-0.51
2022-11-19T09:03:07.452Z,-0.40
2022-11-19T09:08:07.693Z,-0.29
2022-11-19T09:13:07.891Z,-0.16
2022-11-19T09:18:07.326Z,-0.18
2022-11-19T09:23:06.221Z,-0.20
2022-11-19T09:28:05.400Z,-0.29
2022-11-19T09:33:05.632Z,-0.48
2022-11-19T09:38:04.512Z,-0.70
2022-11-19T09:43:17.308Z,-0.84
2022-11-19T09:48:37.252Z,-0.92
2022-11-19T09:53:47.209Z,-0.97
2022-11-19T09:58:47.415Z,-1.07
2022-11-19T10:03:53.050Z,-1.20
2022-11-19T10:09:26.074Z,-1.27
2022-11-19T10:14:49.001Z,-1.19
2022-11-19T10:20:13.210Z,-0.81
2022-11-19T10:25:25.587Z,-0.24
2022-11-19T10:30:30.294Z,0.50
2022-11-19T10:35:38.425Z,1.34
2022-11-19T10:40:46.972Z,1.98
2022-11-19T10:45:46.317Z,2.01
2022-11-19T10:50:47.633Z,2.00
2022-11-19T10:55:54.932Z,2.19
2022-11-19T11:00:57.004Z,2.48
2022-11-19T11:06:06.397Z,2.82
2022-11-19T11:11:05.936Z,3.15
2022-11-19T11:16:12.506Z,3.30
2022-11-19T11:21:26.085Z,2.97
2022-11-19T11:26:29.464Z,2.46
2022-11-19T11:31:40.231Z,2.13
2022-11-19T11:36:42.784Z,1.88
2022-11-19T11:47:14.752Z,1.26
2022-11-19T11:52:24.335Z,0.70
2022-11-19T11:57:26.576Z,0.31
2022-11-19T12:02:31.015Z,0.03
2022-11-19T12:07:56.932Z,-0.12
2022-11-19T12:13:25.338Z,-0.14
2022-11-19T12:18:39.050Z,-0.11
2022-11-19T12:24:04.104Z,0.22
2022-11-19T12:29:18.903Z,0.59
2022-11-19T12:34:49.391Z,0.83
2022-11-19T12:39:58.882Z,0.93
2022-11-19T12:45:08.214Z,0.84
2022-11-19T12:50:27.764Z,0.57
2022-11-19T12:55:37.705Z,0.34
2022-11-19T13:00:47.945Z,0.21
2022-11-19T13:05:55.463Z,0.01
2022-11-19T13:11:05.751Z,-0.09
2022-11-19T13:16:12.537Z,-0.09
2022-11-19T13:21:25.887Z,-0.21
2022-11-19T13:26:31.379Z,-0.33
2022-11-19T13:31:40.655Z,-0.51
2022-11-19T13:36:47.976Z,-0.63
2022-11-19T13:42:11.455Z,-0.65
2022-11-19T13:47:20.003Z,-0.59
2022-11-19T13:52:31.928Z,-0.57
2022-11-19T13:57:39.186Z,-0.58
2022-11-19T14:03:08.665Z,-0.57
2022-11-19T14:08:30.219Z,-0.59
2022-11-19T14:13:50.618Z,-0.65
2022-11-19T14:19:11.290Z,-0.73
2022-11-19T14:25:15.225Z,-0.78
2022-11-19T14:30:50.934Z,-0.84
2022-11-19T14:35:50.748Z,-0.97
2022-11-19T14:41:00.307Z,-1.10
2022-11-19T14:46:31.244Z,-1.26
2022-11-19T14:51:37.931Z,-1.41
2022-11-19T14:56:41.051Z,-1.53
2022-11-19T15:01:59.052Z,-1.65
2022-11-19T15:07:00.676Z,-1.78
2022-11-19T15:12:05.438Z,-1.89
2022-11-19T15:17:07.474Z,-2.01
2022-11-19T15:22:30.151Z,-2.10
2022-11-19T15:27:52.460Z,-2.21
2022-11-19T15:33:16.543Z,-2.30
2022-11-19T15:38:36.441Z,-2.38
2022-11-19T15:43:46.550Z,-2.46
2022-11-19T15:48:58.968Z,-2.54
2022-11-19T15:54:07.565Z,-2.61
2022-11-19T15:59:11.971Z,-2.67
2022-11-19T16:04:15.997Z,-2.71
2022-11-19T16:09:23.756Z,-2.74
2022-11-19T16:14:45.858Z,-2.76
2022-11-19T16:19:44.708Z,-2.77
2022-11-19T16:25:01.342Z,-2.80
2022-11-19T16:30:01.691Z,-2.81
2022-11-19T16:35:24.797Z,-2.82
2022-11-19T16:40:28.282Z,-2.83
2022-11-19T16:45:30.534Z,-2.85
2022-11-19T16:50:43.791Z,-2.88
2022-11-19T16:56:17.000Z,-2.92
2022-11-19T17:01:29.362Z,-2.96
2022-11-19T17:06:32.916Z,-2.98
2022-11-19T17:12:09.311Z,-2.99
2022-11-19T17:17:28.009Z,-3.01
2022-11-19T17:22:32.294Z,-3.03
2022-11-19T17:27:37.361Z,-3.06
2022-11-19T17:32:47.428Z,-3.09
2022-11-19T17:37:46.829Z,-3.09
2022-11-19T17:43:06.335Z,-3.09
2022-11-19T17:48:13.734Z,-3.07
2022-11-19T17:53:13.777Z,-3.04
2022-11-19T17:58:13.094Z,-3.01
2022-11-19T18:03:16.600Z,-3.01
2022-11-19T18:08:16.769Z,-3.00
2022-11-19T18:13:22.211Z,-2.99
2022-11-19T18:18:22.001Z,-2.99
2022-11-19T18:23:21.303Z,-2.97
2022-11-19T18:28:20.314Z,-2.94
2022-11-19T18:33:19.906Z,-2.92
2022-11-19T18:38:19.480Z,-2.89
2022-11-19T18:43:39.805Z,-2.86
2022-11-19T18:48:39.327Z,-2.83
2022-11-19T18:53:38.722Z,-2.82
2022-11-19T18:58:38.488Z,-2.81
2022-11-19T19:03:37.773Z,-2.80
2022-11-19T19:08:37.962Z,-2.78
2022-11-19T19:13:37.219Z,-2.77
2022-11-19T19:26:11.708Z,-2.78
2022-11-19T19:31:16.509Z,-2.79
2022-11-19T19:36:18.909Z,-2.81
2022-11-19T19:41:23.824Z,-2.83
2022-11-19T19:46:25.277Z,-2.83
2022-11-19T19:51:27.785Z,-2.85
2022-11-19T19:56:30.674Z,-2.87
2022-11-19T20:01:32.966Z,-2.90
2022-11-19T20:06:34.417Z,-2.95
2022-11-19T20:11:33.612Z,-2.99
2022-11-19T20:16:34.258Z,-3.06
2022-11-19T20:21:36.640Z,-3.11
2022-11-19T20:26:36.587Z,-3.16
2022-11-19T20:31:37.415Z,-3.20
2022-11-19T20:36:38.256Z,-3.21
2022-11-19T20:41:54.956Z,-3.24
2022-11-19T20:46:57.137Z,-3.26
2022-11-19T20:51:58.562Z,-3.29
2022-11-19T20:56:59.651Z,-3.32
2022-11-19T21:02:00.960Z,-3.38
2022-11-19T21:07:00.083Z,-3.43
2022-11-19T21:11:59.137Z,-3.48
2022-11-19T21:16:58.081Z,-3.53
2022-11-19T21:21:57.353Z,-3.60
2022-11-19T21:26:56.288Z,-3.66
2022-11-19T21:31:55.801Z,-3.71
2022-11-19T21:36:58.102Z,-3.74
2022-11-19T21:41:57.164Z,-3.76
2022-11-19T21:46:56.483Z,-3.79
2022-11-19T21:51:55.331Z,-3.79
2022-11-19T21:56:55.575Z,-3.79
2022-11-19T22:01:55.185Z,-3.78
2022-11-19T22:06:54.749Z,-3.78
2022-11-19T22:11:57.064Z,-3.78
2022-11-19T22:16:56.217Z,-3.80
2022-11-19T22:21:55.098Z,-3.80
2022-11-19T22:26:54.133Z,-3.81
2022-11-19T22:31:53.755Z,-3.82
2022-11-19T22:36:53.279Z,-3.83
2022-11-19T22:41:52.993Z,-3.83
2022-11-19T22:46:51.987Z,-3.84
2022-11-19T22:51:51.117Z,-3.83
2022-11-19T22:56:49.902Z,-3.83
2022-11-19T23:01:49.062Z,-3.84
2022-11-19T23:06:48.227Z,-3.85
2022-11-19T23:12:07.877Z,-3.85
2022-11-19T23:17:07.253Z,-3.86
2022-11-19T23:22:06.877Z,-3.86
2022-11-19T23:27:05.749Z,-3.87
2022-11-19T23:32:04.816Z,-3.88
2022-11-19T23:37:04.299Z,-3.89
2022-11-19T23:42:03.849Z,-3.90
2022-11-19T23:47:03.610Z,-3.92
2022-11-19T23:52:02.912Z,-3.94
2022-11-19T23:57:02.748Z,-3.95
